sensor_id;sensor_type;location;lat;lon;timestamp;P1;durP1;ratioP1;P2;durP2;ratioP2
54743;SDS011;40639;53.170;6.728;2023-04-24T00:01:18;9.63;;;5.38;;
54743;SDS011;40639;53.170;6.728;2023-04-24T00:03:44;6.43;;;4.50;;
54743;SDS011;40639;53.170;6.728;2023-04-24T00:06:10;4.90;;;3.70;;
54743;SDS011;40639;53.170;6.728;2023-04-24T00:08:37;4.28;;;2.20;;
54743;SDS011;40639;53.170;6.728;2023-04-24T00:11:03;4.22;;;2.30;;
54743;SDS011;40639;53.170;6.728;2023-04-24T00:13:30;2.28;;;1.42;;
54743;SDS011;40639;53.170;6.728;2023-04-24T00:15:56;1.17;;;1.00;;
54743;SDS011;40639;53.170;6.728;2023-04-24T00:18:22;1.60;;;1.00;;
54743;SDS011;40639;53.170;6.728;2023-04-24T00:20:48;1.60;;;1.10;;
54743;SDS011;40639;53.170;6.728;2023-04-24T00:23:14;2.30;;;1.30;;
54743;SDS011;40639;53.170;6.728;2023-04-24T00:25:40;1.60;;;1.10;;
54743;SDS011;40639;53.170;6.728;2023-04-24T00:28:06;1.48;;;1.13;;
54743;SDS011;40639;53.170;6.728;2023-04-24T00:30:33;1.35;;;1.10;;
54743;SDS011;40639;53.170;6.728;2023-04-24T00:32:59;1.85;;;1.20;;
54743;SDS011;40639;53.170;6.728;2023-04-24T00:35:25;1.23;;;0.90;;
54743;SDS011;40639;53.170;6.728;2023-04-24T00:37:51;1.80;;;1.10;;
54743;SDS011;40639;53.170;6.728;2023-04-24T00:40:17;1.92;;;0.93;;
54743;SDS011;40639;53.170;6.728;2023-04-24T00:42:43;1.45;;;0.80;;
54743;SDS011;40639;53.170;6.728;2023-04-24T00:45:10;0.85;;;0.65;;
54743;SDS011;40639;53.170;6.728;2023-04-24T00:47:36;1.35;;;0.60;;
54743;SDS011;40639;53.170;6.728;2023-04-24T00:50:04;1.15;;;0.90;;
54743;SDS011;40639;53.170;6.728;2023-04-24T00:52:31;1.00;;;0.90;;
54743;SDS011;40639;53.170;6.728;2023-04-24T00:54:57;1.38;;;0.80;;
54743;SDS011;40639;53.170;6.728;2023-04-24T00:57:24;0.80;;;0.80;;
54743;SDS011;40639;53.170;6.728;2023-04-24T00:59:50;1.17;;;0.90;;
54743;SDS011;40639;53.170;6.728;2023-04-24T01:02:17;1.95;;;0.90;;
54743;SDS011;40639;53.170;6.728;2023-04-24T01:04:43;1.25;;;0.90;;
54743;SDS011;40639;53.170;6.728;2023-04-24T01:07:09;4.00;;;1.00;;
54743;SDS011;40639;53.170;6.728;2023-04-24T01:09:37;2.38;;;1.35;;
54743;SDS011;40639;53.170;6.728;2023-04-24T01:12:03;1.20;;;1.10;;
54743;SDS011;40639;53.170;6.728;2023-04-24T01:14:30;2.47;;;1.13;;
54743;SDS011;40639;53.170;6.728;2023-04-24T01:16:57;1.63;;;1.15;;
54743;SDS011;40639;53.170;6.728;2023-04-24T01:19:23;1.35;;;1.20;;
54743;SDS011;40639;53.170;6.728;2023-04-24T01:21:50;0.82;;;0.80;;
54743;SDS011;40639;53.170;6.728;2023-04-24T01:24:16;1.80;;;1.25;;
54743;SDS011;40639;53.170;6.728;2023-04-24T01:26:44;2.42;;;1.15;;
54743;SDS011;40639;53.170;6.728;2023-04-24T01:29:10;1.67;;;1.27;;
54743;SDS011;40639;53.170;6.728;2023-04-24T01:31:37;1.50;;;1.30;;
54743;SDS011;40639;53.170;6.728;2023-04-24T01:34:03;1.85;;;1.38;;
54743;SDS011;40639;53.170;6.728;2023-04-24T01:36:30;1.48;;;1.20;;
54743;SDS011;40639;53.170;6.728;2023-04-24T01:38:56;1.98;;;1.42;;
54743;SDS011;40639;53.170;6.728;2023-04-24T01:41:22;2.00;;;1.40;;
54743;SDS011;40639;53.170;6.728;2023-04-24T01:43:49;2.20;;;1.60;;
54743;SDS011;40639;53.170;6.728;2023-04-24T01:46:15;1.30;;;1.20;;
54743;SDS011;40639;53.170;6.728;2023-04-24T01:48:42;1.95;;;1.67;;
54743;SDS011;40639;53.170;6.728;2023-04-24T01:51:08;2.20;;;1.60;;
54743;SDS011;40639;53.170;6.728;2023-04-24T01:53:34;2.10;;;1.52;;
54743;SDS011;40639;53.170;6.728;2023-04-24T01:56:00;1.70;;;1.50;;
54743;SDS011;40639;53.170;6.728;2023-04-24T01:58:27;1.80;;;1.60;;
54743;SDS011;40639;53.170;6.728;2023-04-24T02:00:55;2.20;;;1.65;;
54743;SDS011;40639;53.170;6.728;2023-04-24T02:03:22;2.00;;;1.63;;
54743;SDS011;40639;53.170;6.728;2023-04-24T02:05:48;3.17;;;1.90;;
54743;SDS011;40639;53.170;6.728;2023-04-24T02:08:14;2.97;;;2.30;;
54743;SDS011;40639;53.170;6.728;2023-04-24T02:10:40;3.10;;;2.10;;
54743;SDS011;40639;53.170;6.728;2023-04-24T02:13:06;2.80;;;2.13;;
54743;SDS011;40639;53.170;6.728;2023-04-24T02:15:32;3.47;;;2.47;;
54743;SDS011;40639;53.170;6.728;2023-04-24T02:17:58;2.85;;;2.45;;
54743;SDS011;40639;53.170;6.728;2023-04-24T02:20:25;2.72;;;2.28;;
54743;SDS011;40639;53.170;6.728;2023-04-24T02:22:51;3.75;;;2.30;;
54743;SDS011;40639;53.170;6.728;2023-04-24T02:25:17;3.72;;;2.75;;
54743;SDS011;40639;53.170;6.728;2023-04-24T02:27:43;4.03;;;2.85;;
54743;SDS011;40639;53.170;6.728;2023-04-24T02:30:09;6.45;;;2.83;;
54743;SDS011;40639;53.170;6.728;2023-04-24T02:32:35;4.80;;;3.03;;
54743;SDS011;40639;53.170;6.728;2023-04-24T02:35:02;3.92;;;2.90;;
54743;SDS011;40639;53.170;6.728;2023-04-24T02:37:28;4.75;;;3.00;;
54743;SDS011;40639;53.170;6.728;2023-04-24T02:39:54;4.95;;;3.30;;
54743;SDS011;40639;53.170;6.728;2023-04-24T02:42:20;6.50;;;3.75;;
54743;SDS011;40639;53.170;6.728;2023-04-24T02:44:46;5.10;;;3.88;;
54743;SDS011;40639;53.170;6.728;2023-04-24T02:47:12;7.45;;;4.03;;
54743;SDS011;40639;53.170;6.728;2023-04-24T02:49:39;6.88;;;4.43;;
54743;SDS011;40639;53.170;6.728;2023-04-24T02:52:05;6.25;;;4.30;;
54743;SDS011;40639;53.170;6.728;2023-04-24T02:54:31;6.32;;;4.53;;
54743;SDS011;40639;53.170;6.728;2023-04-24T02:56:57;6.20;;;4.25;;
54743;SDS011;40639;53.170;6.728;2023-04-24T02:59:23;6.57;;;4.57;;
54743;SDS011;40639;53.170;6.728;2023-04-24T03:01:49;6.10;;;4.30;;
54743;SDS011;40639;53.170;6.728;2023-04-24T03:04:16;7.07;;;4.43;;
54743;SDS011;40639;53.170;6.728;2023-04-24T03:06:45;6.18;;;4.13;;
54743;SDS011;40639;53.170;6.728;2023-04-24T03:09:11;5.95;;;4.45;;
54743;SDS011;40639;53.170;6.728;2023-04-24T03:11:37;5.30;;;4.00;;
54743;SDS011;40639;53.170;6.728;2023-04-24T03:14:03;7.28;;;4.43;;
54743;SDS011;40639;53.170;6.728;2023-04-24T03:16:29;6.47;;;4.18;;
54743;SDS011;40639;53.170;6.728;2023-04-24T03:18:56;6.75;;;4.28;;
54743;SDS011;40639;53.170;6.728;2023-04-24T03:21:22;8.10;;;5.15;;
54743;SDS011;40639;53.170;6.728;2023-04-24T03:23:48;7.07;;;5.50;;
54743;SDS011;40639;53.170;6.728;2023-04-24T03:26:14;7.50;;;5.70;;
54743;SDS011;40639;53.170;6.728;2023-04-24T03:28:40;10.35;;;6.38;;
54743;SDS011;40639;53.170;6.728;2023-04-24T03:31:07;8.90;;;5.95;;
54743;SDS011;40639;53.170;6.728;2023-04-24T03:33:33;8.90;;;6.20;;
54743;SDS011;40639;53.170;6.728;2023-04-24T03:35:59;8.38;;;5.90;;
54743;SDS011;40639;53.170;6.728;2023-04-24T03:38:25;8.48;;;6.57;;
54743;SDS011;40639;53.170;6.728;2023-04-24T03:40:51;7.53;;;6.00;;
54743;SDS011;40639;53.170;6.728;2023-04-24T03:43:18;7.97;;;6.00;;
54743;SDS011;40639;53.170;6.728;2023-04-24T03:45:44;8.10;;;6.38;;
54743;SDS011;40639;53.170;6.728;2023-04-24T03:48:10;8.50;;;6.03;;
54743;SDS011;40639;53.170;6.728;2023-04-24T03:50:36;8.10;;;6.35;;
54743;SDS011;40639;53.170;6.728;2023-04-24T03:53:02;7.80;;;6.13;;
54743;SDS011;40639;53.170;6.728;2023-04-24T03:55:28;8.00;;;5.85;;
54743;SDS011;40639;53.170;6.728;2023-04-24T03:57:54;8.88;;;6.20;;
54743;SDS011;40639;53.170;6.728;2023-04-24T04:00:21;6.47;;;5.20;;
54743;SDS011;40639;53.170;6.728;2023-04-24T04:02:47;7.40;;;5.75;;
54743;SDS011;40639;53.170;6.728;2023-04-24T04:05:13;7.28;;;5.60;;
54743;SDS011;40639;53.170;6.728;2023-04-24T04:07:39;6.72;;;4.95;;
54743;SDS011;40639;53.170;6.728;2023-04-24T04:10:05;7.35;;;4.97;;
54743;SDS011;40639;53.170;6.728;2023-04-24T04:12:35;8.00;;;4.80;;
54743;SDS011;40639;53.170;6.728;2023-04-24T04:15:01;7.35;;;5.18;;
54743;SDS011;40639;53.170;6.728;2023-04-24T04:17:27;5.97;;;4.80;;
54743;SDS011;40639;53.170;6.728;2023-04-24T04:19:54;5.50;;;4.28;;
54743;SDS011;40639;53.170;6.728;2023-04-24T04:22:21;6.57;;;4.70;;
54743;SDS011;40639;53.170;6.728;2023-04-24T04:24:47;5.43;;;3.72;;
54743;SDS011;40639;53.170;6.728;2023-04-24T04:27:16;7.57;;;4.20;;
54743;SDS011;40639;53.170;6.728;2023-04-24T04:29:44;5.43;;;3.80;;
54743;SDS011;40639;53.170;6.728;2023-04-24T04:32:10;6.72;;;4.07;;
54743;SDS011;40639;53.170;6.728;2023-04-24T04:34:36;5.97;;;4.63;;
54743;SDS011;40639;53.170;6.728;2023-04-24T04:37:02;6.40;;;3.92;;
54743;SDS011;40639;53.170;6.728;2023-04-24T04:39:29;5.50;;;4.22;;
54743;SDS011;40639;53.170;6.728;2023-04-24T04:41:55;6.65;;;4.45;;
54743;SDS011;40639;53.170;6.728;2023-04-24T04:44:21;6.43;;;4.78;;
54743;SDS011;40639;53.170;6.728;2023-04-24T04:46:48;6.35;;;4.60;;
54743;SDS011;40639;53.170;6.728;2023-04-24T04:49:15;5.40;;;4.38;;
54743;SDS011;40639;53.170;6.728;2023-04-24T04:51:41;7.22;;;5.72;;
54743;SDS011;40639;53.170;6.728;2023-04-24T04:54:08;6.65;;;5.22;;
54743;SDS011;40639;53.170;6.728;2023-04-24T04:56:34;7.18;;;4.95;;
54743;SDS011;40639;53.170;6.728;2023-04-24T04:59:00;6.00;;;4.65;;
54743;SDS011;40639;53.170;6.728;2023-04-24T05:01:26;8.50;;;5.68;;
54743;SDS011;40639;53.170;6.728;2023-04-24T05:03:52;6.10;;;4.50;;
54743;SDS011;40639;53.170;6.728;2023-04-24T05:06:19;6.20;;;4.47;;
54743;SDS011;40639;53.170;6.728;2023-04-24T05:08:45;5.90;;;4.05;;
54743;SDS011;40639;53.170;6.728;2023-04-24T05:11:11;6.45;;;4.30;;
54743;SDS011;40639;53.170;6.728;2023-04-24T05:13:37;6.40;;;4.25;;
54743;SDS011;40639;53.170;6.728;2023-04-24T05:16:04;5.88;;;3.92;;
54743;SDS011;40639;53.170;6.728;2023-04-24T05:18:30;4.65;;;3.20;;
54743;SDS011;40639;53.170;6.728;2023-04-24T05:20:56;5.00;;;3.40;;
54743;SDS011;40639;53.170;6.728;2023-04-24T05:23:22;4.30;;;3.05;;
54743;SDS011;40639;53.170;6.728;2023-04-24T05:25:48;4.40;;;3.20;;
54743;SDS011;40639;53.170;6.728;2023-04-24T05:28:14;4.13;;;2.85;;
54743;SDS011;40639;53.170;6.728;2023-04-24T05:30:41;2.45;;;2.10;;
54743;SDS011;40639;53.170;6.728;2023-04-24T05:33:07;3.22;;;1.67;;
54743;SDS011;40639;53.170;6.728;2023-04-24T05:35:34;2.72;;;1.90;;
54743;SDS011;40639;53.170;6.728;2023-04-24T05:38:00;3.03;;;1.52;;
54743;SDS011;40639;53.170;6.728;2023-04-24T05:40:26;1.83;;;1.40;;
54743;SDS011;40639;53.170;6.728;2023-04-24T05:42:52;1.30;;;1.10;;
54743;SDS011;40639;53.170;6.728;2023-04-24T05:45:18;1.10;;;1.00;;
54743;SDS011;40639;53.170;6.728;2023-04-24T05:47:45;1.50;;;1.00;;
54743;SDS011;40639;53.170;6.728;2023-04-24T05:50:11;1.10;;;0.90;;
54743;SDS011;40639;53.170;6.728;2023-04-24T05:52:37;1.05;;;0.90;;
54743;SDS011;40639;53.170;6.728;2023-04-24T05:55:04;1.92;;;1.17;;
54743;SDS011;40639;53.170;6.728;2023-04-24T05:57:30;1.65;;;1.13;;
54743;SDS011;40639;53.170;6.728;2023-04-24T05:59:56;1.50;;;1.33;;
54743;SDS011;40639;53.170;6.728;2023-04-24T06:02:23;1.20;;;0.90;;
54743;SDS011;40639;53.170;6.728;2023-04-24T06:04:49;1.23;;;0.90;;
54743;SDS011;40639;53.170;6.728;2023-04-24T06:07:15;2.00;;;1.35;;
54743;SDS011;40639;53.170;6.728;2023-04-24T06:09:41;1.92;;;1.42;;
54743;SDS011;40639;53.170;6.728;2023-04-24T06:12:07;2.42;;;1.20;;
54743;SDS011;40639;53.170;6.728;2023-04-24T06:14:34;1.60;;;1.30;;
54743;SDS011;40639;53.170;6.728;2023-04-24T06:17:00;1.35;;;1.02;;
54743;SDS011;40639;53.170;6.728;2023-04-24T06:19:26;2.28;;;1.45;;
54743;SDS011;40639;53.170;6.728;2023-04-24T06:21:52;1.60;;;1.17;;
54743;SDS011;40639;53.170;6.728;2023-04-24T06:24:18;1.40;;;1.10;;
54743;SDS011;40639;53.170;6.728;2023-04-24T06:26:45;3.05;;;2.10;;
54743;SDS011;40639;53.170;6.728;2023-04-24T06:29:11;3.53;;;2.30;;
54743;SDS011;40639;53.170;6.728;2023-04-24T06:31:37;4.47;;;2.50;;
54743;SDS011;40639;53.170;6.728;2023-04-24T06:34:03;6.35;;;3.30;;
54743;SDS011;40639;53.170;6.728;2023-04-24T06:36:30;5.63;;;3.17;;
54743;SDS011;40639;53.170;6.728;2023-04-24T06:38:56;5.20;;;3.10;;
54743;SDS011;40639;53.170;6.728;2023-04-24T06:41:22;5.05;;;2.47;;
54743;SDS011;40639;53.170;6.728;2023-04-24T06:43:48;5.30;;;3.00;;
54743;SDS011;40639;53.170;6.728;2023-04-24T06:46:14;4.82;;;3.00;;
54743;SDS011;40639;53.170;6.728;2023-04-24T06:48:41;6.82;;;4.20;;
54743;SDS011;40639;53.170;6.728;2023-04-24T06:51:07;8.85;;;3.80;;
54743;SDS011;40639;53.170;6.728;2023-04-24T06:53:34;5.47;;;3.65;;
54743;SDS011;40639;53.170;6.728;2023-04-24T06:56:00;9.00;;;4.57;;
54743;SDS011;40639;53.170;6.728;2023-04-24T06:58:26;8.57;;;3.63;;
54743;SDS011;40639;53.170;6.728;2023-04-24T07:00:52;6.00;;;3.95;;
54743;SDS011;40639;53.170;6.728;2023-04-24T07:03:22;7.03;;;4.28;;
54743;SDS011;40639;53.170;6.728;2023-04-24T07:05:51;8.30;;;4.00;;
54743;SDS011;40639;53.170;6.728;2023-04-24T07:08:18;7.75;;;4.35;;
54743;SDS011;40639;53.170;6.728;2023-04-24T07:10:45;7.30;;;3.65;;
54743;SDS011;40639;53.170;6.728;2023-04-24T07:13:11;4.57;;;3.10;;
54743;SDS011;40639;53.170;6.728;2023-04-24T07:15:37;5.53;;;3.15;;
54743;SDS011;40639;53.170;6.728;2023-04-24T07:18:04;6.80;;;3.65;;
54743;SDS011;40639;53.170;6.728;2023-04-24T07:20:31;4.47;;;2.63;;
54743;SDS011;40639;53.170;6.728;2023-04-24T07:23:00;3.15;;;1.90;;
54743;SDS011;40639;53.170;6.728;2023-04-24T07:25:26;3.45;;;1.67;;
54743;SDS011;40639;53.170;6.728;2023-04-24T07:27:52;2.00;;;1.38;;
54743;SDS011;40639;53.170;6.728;2023-04-24T07:30:18;2.05;;;1.25;;
54743;SDS011;40639;53.170;6.728;2023-04-24T07:32:45;2.03;;;0.90;;
54743;SDS011;40639;53.170;6.728;2023-04-24T07:35:11;1.27;;;0.90;;
54743;SDS011;40639;53.170;6.728;2023-04-24T07:37:37;2.75;;;1.15;;
54743;SDS011;40639;53.170;6.728;2023-04-24T07:40:03;2.30;;;1.60;;
54743;SDS011;40639;53.170;6.728;2023-04-24T07:42:29;2.40;;;1.50;;
54743;SDS011;40639;53.170;6.728;2023-04-24T07:44:56;5.30;;;1.70;;
54743;SDS011;40639;53.170;6.728;2023-04-24T07:47:22;3.40;;;1.85;;
54743;SDS011;40639;53.170;6.728;2023-04-24T07:49:48;4.40;;;1.77;;
54743;SDS011;40639;53.170;6.728;2023-04-24T07:52:14;3.53;;;2.00;;
54743;SDS011;40639;53.170;6.728;2023-04-24T07:54:41;4.03;;;1.50;;
54743;SDS011;40639;53.170;6.728;2023-04-24T07:57:07;3.75;;;2.03;;
54743;SDS011;40639;53.170;6.728;2023-04-24T07:59:34;5.13;;;2.20;;
54743;SDS011;40639;53.170;6.728;2023-04-24T08:02:00;3.92;;;2.47;;
54743;SDS011;40639;53.170;6.728;2023-04-24T08:04:26;7.20;;;3.40;;
54743;SDS011;40639;53.170;6.728;2023-04-24T08:06:53;6.80;;;2.50;;
54743;SDS011;40639;53.170;6.728;2023-04-24T08:09:19;4.90;;;2.75;;
54743;SDS011;40639;53.170;6.728;2023-04-24T08:11:45;8.82;;;2.72;;
54743;SDS011;40639;53.170;6.728;2023-04-24T08:14:11;5.18;;;2.50;;
54743;SDS011;40639;53.170;6.728;2023-04-24T08:16:38;8.52;;;3.05;;
54743;SDS011;40639;53.170;6.728;2023-04-24T08:19:04;7.28;;;3.22;;
54743;SDS011;40639;53.170;6.728;2023-04-24T08:21:30;8.05;;;3.10;;
54743;SDS011;40639;53.170;6.728;2023-04-24T08:23:56;9.23;;;3.45;;
54743;SDS011;40639;53.170;6.728;2023-04-24T08:26:22;8.27;;;4.30;;
54743;SDS011;40639;53.170;6.728;2023-04-24T08:28:49;8.57;;;4.95;;
54743;SDS011;40639;53.170;6.728;2023-04-24T08:31:15;7.88;;;4.50;;
54743;SDS011;40639;53.170;6.728;2023-04-24T08:33:45;8.82;;;5.70;;
54743;SDS011;40639;53.170;6.728;2023-04-24T08:36:12;12.50;;;6.28;;
54743;SDS011;40639;53.170;6.728;2023-04-24T08:38:38;13.15;;;7.60;;
54743;SDS011;40639;53.170;6.728;2023-04-24T08:41:05;16.00;;;8.85;;
54743;SDS011;40639;53.170;6.728;2023-04-24T08:43:32;15.70;;;8.95;;
54743;SDS011;40639;53.170;6.728;2023-04-24T08:45:59;17.05;;;9.07;;
54743;SDS011;40639;53.170;6.728;2023-04-24T08:48:26;17.77;;;7.90;;
54743;SDS011;40639;53.170;6.728;2023-04-24T08:50:52;15.25;;;8.23;;
54743;SDS011;40639;53.170;6.728;2023-04-24T08:53:18;14.30;;;8.52;;
54743;SDS011;40639;53.170;6.728;2023-04-24T08:55:47;21.08;;;8.88;;
54743;SDS011;40639;53.170;6.728;2023-04-24T08:58:14;12.70;;;7.35;;
54743;SDS011;40639;53.170;6.728;2023-04-24T09:00:40;16.73;;;8.20;;
54743;SDS011;40639;53.170;6.728;2023-04-24T09:03:11;16.00;;;8.00;;
54743;SDS011;40639;53.170;6.728;2023-04-24T09:05:39;14.32;;;7.53;;
54743;SDS011;40639;53.170;6.728;2023-04-24T09:08:10;14.40;;;8.05;;
54743;SDS011;40639;53.170;6.728;2023-04-24T09:10:38;14.80;;;7.85;;
54743;SDS011;40639;53.170;6.728;2023-04-24T09:13:04;13.65;;;7.78;;
54743;SDS011;40639;53.170;6.728;2023-04-24T09:15:31;17.55;;;8.35;;
54743;SDS011;40639;53.170;6.728;2023-04-24T09:17:57;17.25;;;8.48;;
54743;SDS011;40639;53.170;6.728;2023-04-24T09:20:24;18.50;;;7.40;;
54743;SDS011;40639;53.170;6.728;2023-04-24T09:22:53;16.80;;;8.25;;
54743;SDS011;40639;53.170;6.728;2023-04-24T09:25:20;13.40;;;7.00;;
54743;SDS011;40639;53.170;6.728;2023-04-24T09:27:46;13.02;;;7.05;;
54743;SDS011;40639;53.170;6.728;2023-04-24T09:30:13;13.35;;;7.95;;
54743;SDS011;40639;53.170;6.728;2023-04-24T09:32:39;15.50;;;8.90;;
54743;SDS011;40639;53.170;6.728;2023-04-24T09:35:07;18.73;;;7.88;;
54743;SDS011;40639;53.170;6.728;2023-04-24T09:37:37;14.55;;;8.90;;
54743;SDS011;40639;53.170;6.728;2023-04-24T09:42:37;14.70;;;7.80;;
54743;SDS011;40639;53.170;6.728;2023-04-24T09:45:04;17.80;;;9.20;;
54743;SDS011;40639;53.170;6.728;2023-04-24T09:47:37;13.73;;;8.43;;
54743;SDS011;40639;53.170;6.728;2023-04-24T09:50:15;11.65;;;6.30;;
54743;SDS011;40639;53.170;6.728;2023-04-24T09:52:42;12.43;;;6.70;;
54743;SDS011;40639;53.170;6.728;2023-04-24T09:55:13;11.50;;;5.82;;
54743;SDS011;40639;53.170;6.728;2023-04-24T09:57:52;12.18;;;6.28;;
54743;SDS011;40639;53.170;6.728;2023-04-24T10:00:26;11.75;;;6.10;;
54743;SDS011;40639;53.170;6.728;2023-04-24T10:03:05;13.10;;;6.03;;
54743;SDS011;40639;53.170;6.728;2023-04-24T10:05:35;10.93;;;6.13;;
54743;SDS011;40639;53.170;6.728;2023-04-24T10:08:03;10.68;;;6.13;;
54743;SDS011;40639;53.170;6.728;2023-04-24T10:10:30;12.30;;;6.20;;
54743;SDS011;40639;53.170;6.728;2023-04-24T10:12:57;13.32;;;5.53;;
54743;SDS011;40639;53.170;6.728;2023-04-24T10:15:23;12.93;;;6.72;;
54743;SDS011;40639;53.170;6.728;2023-04-24T10:17:50;11.02;;;5.43;;
54743;SDS011;40639;53.170;6.728;2023-04-24T10:20:23;11.65;;;5.60;;
54743;SDS011;40639;53.170;6.728;2023-04-24T10:22:50;12.00;;;5.32;;
54743;SDS011;40639;53.170;6.728;2023-04-24T10:25:18;10.02;;;4.70;;
54743;SDS011;40639;53.170;6.728;2023-04-24T10:27:45;9.82;;;4.78;;
54743;SDS011;40639;53.170;6.728;2023-04-24T10:30:12;10.55;;;4.35;;
54743;SDS011;40639;53.170;6.728;2023-04-24T10:32:39;9.35;;;4.95;;
54743;SDS011;40639;53.170;6.728;2023-04-24T10:35:08;8.40;;;3.92;;
54743;SDS011;40639;53.170;6.728;2023-04-24T10:37:35;6.20;;;3.28;;
54743;SDS011;40639;53.170;6.728;2023-04-24T10:40:03;6.57;;;3.22;;
54743;SDS011;40639;53.170;6.728;2023-04-24T10:42:29;8.02;;;3.33;;
54743;SDS011;40639;53.170;6.728;2023-04-24T10:44:55;8.80;;;3.75;;
54743;SDS011;40639;53.170;6.728;2023-04-24T10:47:23;10.18;;;3.42;;
54743;SDS011;40639;53.170;6.728;2023-04-24T10:49:50;5.93;;;2.63;;
54743;SDS011;40639;53.170;6.728;2023-04-24T10:52:17;8.63;;;2.85;;
54743;SDS011;40639;53.170;6.728;2023-04-24T10:54:46;5.95;;;3.25;;
54743;SDS011;40639;53.170;6.728;2023-04-24T10:59:51;8.43;;;3.70;;
54743;SDS011;40639;53.170;6.728;2023-04-24T11:02:17;6.22;;;2.80;;
54743;SDS011;40639;53.170;6.728;2023-04-24T11:04:44;5.90;;;2.75;;
54743;SDS011;40639;53.170;6.728;2023-04-24T11:07:11;7.68;;;3.00;;
54743;SDS011;40639;53.170;6.728;2023-04-24T11:09:37;6.05;;;2.60;;
54743;SDS011;40639;53.170;6.728;2023-04-24T11:12:08;6.25;;;2.40;;
54743;SDS011;40639;53.170;6.728;2023-04-24T11:17:41;9.05;;;2.40;;
54743;SDS011;40639;53.170;6.728;2023-04-24T11:20:07;5.85;;;2.10;;
54743;SDS011;40639;53.170;6.728;2023-04-24T11:22:38;5.38;;;2.13;;
54743;SDS011;40639;53.170;6.728;2023-04-24T11:25:07;10.20;;;2.10;;
54743;SDS011;40639;53.170;6.728;2023-04-24T11:27:40;5.35;;;1.92;;
54743;SDS011;40639;53.170;6.728;2023-04-24T11:30:07;4.30;;;2.15;;
54743;SDS011;40639;53.170;6.728;2023-04-24T11:35:13;9.52;;;2.72;;
54743;SDS011;40639;53.170;6.728;2023-04-24T11:37:41;6.18;;;2.15;;
54743;SDS011;40639;53.170;6.728;2023-04-24T11:40:08;6.45;;;2.28;;
54743;SDS011;40639;53.170;6.728;2023-04-24T11:42:35;5.60;;;2.10;;
54743;SDS011;40639;53.170;6.728;2023-04-24T11:45:02;6.20;;;2.88;;
54743;SDS011;40639;53.170;6.728;2023-04-24T11:47:32;3.90;;;1.60;;
54743;SDS011;40639;53.170;6.728;2023-04-24T11:49:59;5.60;;;1.90;;
54743;SDS011;40639;53.170;6.728;2023-04-24T11:52:26;5.15;;;1.98;;
54743;SDS011;40639;53.170;6.728;2023-04-24T11:54:52;5.38;;;1.92;;
54743;SDS011;40639;53.170;6.728;2023-04-24T11:57:22;7.60;;;2.25;;
54743;SDS011;40639;53.170;6.728;2023-04-24T11:59:48;6.32;;;1.88;;
54743;SDS011;40639;53.170;6.728;2023-04-24T12:02:21;16.55;;;2.70;;
54743;SDS011;40639;53.170;6.728;2023-04-24T12:04:47;4.38;;;2.10;;
54743;SDS011;40639;53.170;6.728;2023-04-24T12:07:13;3.40;;;1.60;;
54743;SDS011;40639;53.170;6.728;2023-04-24T12:09:43;3.90;;;1.50;;
54743;SDS011;40639;53.170;6.728;2023-04-24T12:12:11;3.83;;;1.40;;
54743;SDS011;40639;53.170;6.728;2023-04-24T12:14:48;3.53;;;1.52;;
54743;SDS011;40639;53.170;6.728;2023-04-24T12:17:15;5.10;;;2.05;;
54743;SDS011;40639;53.170;6.728;2023-04-24T12:19:45;6.38;;;2.15;;
54743;SDS011;40639;53.170;6.728;2023-04-24T12:22:12;3.47;;;1.60;;
54743;SDS011;40639;53.170;6.728;2023-04-24T12:27:23;3.17;;;1.60;;
54743;SDS011;40639;53.170;6.728;2023-04-24T12:29:53;6.75;;;1.55;;
54743;SDS011;40639;53.170;6.728;2023-04-24T12:32:19;3.67;;;1.42;;
54743;SDS011;40639;53.170;6.728;2023-04-24T12:34:45;4.45;;;1.33;;
54743;SDS011;40639;53.170;6.728;2023-04-24T12:37:11;2.38;;;1.02;;
54743;SDS011;40639;53.170;6.728;2023-04-24T12:39:38;4.63;;;1.77;;
54743;SDS011;40639;53.170;6.728;2023-04-24T12:42:04;3.10;;;1.30;;
54743;SDS011;40639;53.170;6.728;2023-04-24T12:46:56;4.10;;;1.00;;
54743;SDS011;40639;53.170;6.728;2023-04-24T12:49:23;3.20;;;1.10;;
54743;SDS011;40639;53.170;6.728;2023-04-24T12:51:49;4.20;;;1.38;;
54743;SDS011;40639;53.170;6.728;2023-04-24T12:54:15;2.22;;;0.90;;
54743;SDS011;40639;53.170;6.728;2023-04-24T12:56:41;2.20;;;1.05;;
54743;SDS011;40639;53.170;6.728;2023-04-24T12:59:07;3.85;;;1.55;;
54743;SDS011;40639;53.170;6.728;2023-04-24T13:01:33;2.13;;;1.10;;
54743;SDS011;40639;53.170;6.728;2023-04-24T13:04:00;5.80;;;1.30;;
54743;SDS011;40639;53.170;6.728;2023-04-24T13:06:26;6.13;;;1.42;;
54743;SDS011;40639;53.170;6.728;2023-04-24T13:08:52;4.35;;;1.00;;
54743;SDS011;40639;53.170;6.728;2023-04-24T13:11:20;2.67;;;0.90;;
54743;SDS011;40639;53.170;6.728;2023-04-24T13:13:47;6.57;;;1.40;;
54743;SDS011;40639;53.170;6.728;2023-04-24T13:16:13;4.60;;;1.30;;
54743;SDS011;40639;53.170;6.728;2023-04-24T13:18:39;4.13;;;1.00;;
54743;SDS011;40639;53.170;6.728;2023-04-24T13:21:05;6.85;;;1.35;;
54743;SDS011;40639;53.170;6.728;2023-04-24T13:23:31;4.68;;;1.25;;
54743;SDS011;40639;53.170;6.728;2023-04-24T13:25:58;3.67;;;1.00;;
54743;SDS011;40639;53.170;6.728;2023-04-24T13:28:24;5.38;;;1.10;;
54743;SDS011;40639;53.170;6.728;2023-04-24T13:30:51;6.47;;;1.27;;
54743;SDS011;40639;53.170;6.728;2023-04-24T13:33:17;3.05;;;1.20;;
54743;SDS011;40639;53.170;6.728;2023-04-24T13:35:43;5.72;;;1.30;;
54743;SDS011;40639;53.170;6.728;2023-04-24T13:38:09;3.35;;;1.00;;
54743;SDS011;40639;53.170;6.728;2023-04-24T13:40:36;3.13;;;1.20;;
54743;SDS011;40639;53.170;6.728;2023-04-24T13:43:02;5.45;;;1.40;;
54743;SDS011;40639;53.170;6.728;2023-04-24T13:45:28;6.57;;;1.17;;
54743;SDS011;40639;53.170;6.728;2023-04-24T13:47:54;5.57;;;1.70;;
54743;SDS011;40639;53.170;6.728;2023-04-24T13:50:22;4.20;;;1.48;;
54743;SDS011;40639;53.170;6.728;2023-04-24T13:52:48;2.75;;;1.00;;
54743;SDS011;40639;53.170;6.728;2023-04-24T13:55:14;2.45;;;0.95;;
54743;SDS011;40639;53.170;6.728;2023-04-24T13:57:41;2.10;;;0.82;;
54743;SDS011;40639;53.170;6.728;2023-04-24T14:00:10;3.25;;;0.80;;
54743;SDS011;40639;53.170;6.728;2023-04-24T14:02:38;1.95;;;0.57;;
54743;SDS011;40639;53.170;6.728;2023-04-24T14:05:04;3.67;;;1.00;;
54743;SDS011;40639;53.170;6.728;2023-04-24T14:07:31;3.00;;;0.80;;
54743;SDS011;40639;53.170;6.728;2023-04-24T14:09:57;2.75;;;0.70;;
54743;SDS011;40639;53.170;6.728;2023-04-24T14:12:23;3.72;;;0.95;;
54743;SDS011;40639;53.170;6.728;2023-04-24T14:14:50;2.90;;;1.42;;
54743;SDS011;40639;53.170;6.728;2023-04-24T14:17:16;2.13;;;0.88;;
54743;SDS011;40639;53.170;6.728;2023-04-24T14:19:43;1.58;;;0.93;;
54743;SDS011;40639;53.170;6.728;2023-04-24T14:22:09;2.42;;;0.80;;
54743;SDS011;40639;53.170;6.728;2023-04-24T14:24:35;1.33;;;0.90;;
54743;SDS011;40639;53.170;6.728;2023-04-24T14:29:50;5.32;;;1.75;;
54743;SDS011;40639;53.170;6.728;2023-04-24T14:32:16;3.05;;;1.25;;
54743;SDS011;40639;53.170;6.728;2023-04-24T14:34:42;3.33;;;1.27;;
54743;SDS011;40639;53.170;6.728;2023-04-24T14:37:09;5.05;;;1.80;;
54743;SDS011;40639;53.170;6.728;2023-04-24T14:39:35;6.88;;;1.80;;
54743;SDS011;40639;53.170;6.728;2023-04-24T14:42:01;7.18;;;1.85;;
54743;SDS011;40639;53.170;6.728;2023-04-24T14:44:27;6.40;;;1.83;;
54743;SDS011;40639;53.170;6.728;2023-04-24T14:46:53;6.88;;;1.98;;
54743;SDS011;40639;53.170;6.728;2023-04-24T14:49:20;10.60;;;1.83;;
54743;SDS011;40639;53.170;6.728;2023-04-24T14:51:46;6.90;;;1.80;;
54743;SDS011;40639;53.170;6.728;2023-04-24T14:54:12;5.60;;;2.17;;
54743;SDS011;40639;53.170;6.728;2023-04-24T14:56:38;7.80;;;2.13;;
54743;SDS011;40639;53.170;6.728;2023-04-24T14:59:06;6.90;;;1.92;;
54743;SDS011;40639;53.170;6.728;2023-04-24T15:01:32;7.55;;;1.58;;